createdAt,value
2022-09-17T00:00:36.693Z,9.99
2022-09-17T00:06:08.844Z,9.99
2022-09-17T00:11:21.879Z,10.02
2022-09-17T00:16:31.957Z,9.92
2022-09-17T00:21:39.297Z,9.82
2022-09-17T00:26:48.357Z,9.71
2022-09-17T00:31:55.693Z,9.67
2022-09-17T00:44:03.070Z,9.70
2022-09-17T00:49:11.101Z,9.62
2022-09-17T00:54:14.687Z,9.56
2022-09-17T00:59:19.536Z,9.57
2022-09-17T01:04:27.934Z,9.54
2022-09-17T01:09:40.261Z,9.44
2022-09-17T01:14:58.346Z,9.35
2022-09-17T01:20:36.865Z,9.29
2022-09-17T01:25:56.879Z,9.18
2022-09-17T01:31:13.017Z,9.06
2022-09-17T01:36:29.315Z,9.00
2022-09-17T01:41:41.935Z,8.93
2022-09-17T01:46:50.306Z,8.87
2022-09-17T01:51:57.020Z,8.82
2022-09-17T01:57:05.240Z,8.75
2022-09-17T02:02:15.193Z,8.67
2022-09-17T02:07:22.209Z,8.60
2022-09-17T02:12:34.054Z,8.52
2022-09-17T02:17:43.611Z,8.47
2022-09-17T02:22:52.616Z,8.42
2022-09-17T02:28:03.582Z,8.38
2022-09-17T02:33:12.356Z,8.31
2022-09-17T02:38:28.752Z,8.24
2022-09-17T02:43:42.516Z,8.28
2022-09-17T02:49:16.943Z,8.30
2022-09-17T02:54:29.564Z,8.42
2022-09-17T02:59:41.990Z,8.60
2022-09-17T03:04:49.676Z,8.65
2022-09-17T03:09:53.265Z,8.62
2022-09-17T03:14:57.079Z,8.60
2022-09-17T03:20:01.193Z,8.58
2022-09-17T03:25:08.539Z,8.55
2022-09-17T03:30:13.145Z,8.57
2022-09-17T03:35:16.917Z,8.58
2022-09-17T03:40:20.540Z,8.59
2022-09-17T03:45:24.463Z,8.58
2022-09-17T03:50:28.123Z,8.60
2022-09-17T03:55:34.602Z,8.62
2022-09-17T04:00:43.103Z,8.68
2022-09-17T04:05:46.508Z,8.77
2022-09-17T04:10:51.449Z,8.83
2022-09-17T04:15:54.957Z,8.84
2022-09-17T04:20:58.476Z,8.83
2022-09-17T04:26:04.883Z,8.88
2022-09-17T04:31:08.826Z,8.97
2022-09-17T04:36:12.309Z,9.02
2022-09-17T04:41:15.730Z,9.08
2022-09-17T04:46:19.429Z,9.12
2022-09-17T04:51:23.154Z,9.08
2022-09-17T04:56:26.759Z,9.10
2022-09-17T05:01:30.373Z,9.15
2022-09-17T05:06:35.458Z,9.21
2022-09-17T05:11:38.949Z,9.24
2022-09-17T05:16:42.448Z,9.28
2022-09-17T05:21:46.118Z,9.31
2022-09-17T05:26:51.779Z,9.40
2022-09-17T05:31:55.853Z,9.55
2022-09-17T05:36:59.517Z,9.69
2022-09-17T05:42:03.865Z,9.83
2022-09-17T05:47:07.631Z,9.91
2022-09-17T05:52:11.247Z,9.96
2022-09-17T05:57:15.514Z,9.99
2022-09-17T06:02:19.249Z,10.02
2022-09-17T06:07:22.826Z,10.07
2022-09-17T06:12:26.336Z,10.15
2022-09-17T06:17:32.507Z,10.20
2022-09-17T06:22:36.243Z,10.25
2022-09-17T06:27:40.193Z,10.34
2022-09-17T06:32:44.396Z,10.46
2022-09-17T06:37:48.303Z,10.55
2022-09-17T06:42:56.513Z,10.64
2022-09-17T06:48:05.247Z,10.72
2022-09-17T06:53:10.096Z,10.79
2022-09-17T06:58:13.977Z,10.83
2022-09-17T07:03:22.471Z,10.86
2022-09-17T07:08:27.420Z,10.88
2022-09-17T07:13:31.418Z,10.87
2022-09-17T07:18:35.150Z,10.87
2022-09-17T07:23:38.757Z,10.90
2022-09-17T07:28:43.720Z,10.95
2022-09-17T07:33:47.332Z,11.02
2022-09-17T07:38:51.237Z,11.15
2022-09-17T07:43:55.673Z,11.29
2022-09-17T07:48:59.178Z,11.43
2022-09-17T07:54:03.723Z,11.56
2022-09-17T07:59:09.046Z,11.68
2022-09-17T08:04:12.755Z,11.71
2022-09-17T08:09:18.074Z,11.73
2022-09-17T08:14:24.583Z,11.74
2022-09-17T08:19:32.932Z,11.75
2022-09-17T08:24:37.325Z,11.77
2022-09-17T08:29:41.119Z,11.76
2022-09-17T08:34:44.640Z,11.78
2022-09-17T08:39:48.865Z,11.82
2022-09-17T08:44:59.953Z,11.91
2022-09-17T08:50:13.006Z,11.94
2022-09-17T08:55:31.140Z,11.96
2022-09-17T09:00:42.757Z,12.05
2022-09-17T09:05:52.133Z,12.14
2022-09-17T09:10:58.169Z,12.21
2022-09-17T09:16:05.549Z,12.23
2022-09-17T09:21:25.472Z,12.25
2022-09-17T09:26:44.148Z,12.36
2022-09-17T09:32:16.281Z,12.50
2022-09-17T09:37:25.840Z,12.56
2022-09-17T09:42:32.938Z,12.63
2022-09-17T09:47:54.417Z,12.70
2022-09-17T09:53:11.075Z,12.71
2022-09-17T09:58:24.439Z,12.75
2022-09-17T10:03:32.416Z,12.83
2022-09-17T10:08:38.594Z,12.91
2022-09-17T10:13:42.824Z,13.00
2022-09-17T10:18:48.187Z,13.07
2022-09-17T10:23:51.882Z,13.11
2022-09-17T10:28:58.545Z,13.11
2022-09-17T10:34:04.068Z,13.15
2022-09-17T10:39:33.590Z,13.21
2022-09-17T10:44:38.342Z,13.28
2022-09-17T10:49:44.627Z,13.42
2022-09-17T10:55:29.382Z,13.52
2022-09-17T11:00:44.173Z,13.53
2022-09-17T11:06:14.894Z,13.50
2022-09-17T11:11:32.356Z,13.47
2022-09-17T11:16:43.366Z,13.39
2022-09-17T11:21:53.880Z,13.30
2022-09-17T11:27:08.148Z,13.13
2022-09-17T11:32:20.571Z,12.95
2022-09-17T11:37:32.503Z,12.79
2022-09-17T11:42:45.221Z,12.59
2022-09-17T11:47:52.587Z,12.43
2022-09-17T11:53:05.567Z,12.32
2022-09-17T11:58:15.519Z,12.24
2022-09-17T12:03:26.096Z,12.18
2022-09-17T12:08:39.493Z,12.17
2022-09-17T12:13:48.104Z,12.20
2022-09-17T12:18:56.673Z,12.24
2022-09-17T12:24:07.629Z,12.25
2022-09-17T12:29:31.888Z,12.25
2022-09-17T12:34:49.023Z,12.25
2022-09-17T12:44:30.043Z,12.33
2022-09-17T12:49:50.232Z,12.30
2022-09-17T12:55:24.893Z,12.32
2022-09-17T13:00:34.806Z,12.34
2022-09-17T13:06:09.293Z,12.35
2022-09-17T13:11:50.389Z,12.35
2022-09-17T13:17:05.574Z,12.37
2022-09-17T13:22:22.094Z,12.39
2022-09-17T13:27:31.806Z,12.37
2022-09-17T13:32:55.405Z,12.41
2022-09-17T13:38:05.434Z,12.44
2022-09-17T13:43:14.794Z,12.48
2022-09-17T13:48:25.452Z,12.50
2022-09-17T13:53:33.009Z,12.51
2022-09-17T13:58:40.055Z,12.48
2022-09-17T14:03:57.302Z,12.48
2022-09-17T14:09:39.151Z,12.48
2022-09-17T14:14:54.416Z,12.44
2022-09-17T14:20:02.209Z,12.38
2022-09-17T14:25:24.340Z,12.33
2022-09-17T14:30:33.012Z,12.28
2022-09-17T14:35:43.444Z,12.25
2022-09-17T14:40:58.690Z,12.21
2022-09-17T14:46:08.311Z,12.20
2022-09-17T14:51:28.482Z,12.19
2022-09-17T14:56:46.819Z,12.21
2022-09-17T15:01:54.289Z,12.21
2022-09-17T15:07:13.563Z,12.21
2022-09-17T15:12:24.237Z,12.19
2022-09-17T15:17:33.608Z,12.17
2022-09-17T15:22:43.850Z,12.15
2022-09-17T15:27:52.994Z,12.11
2022-09-17T15:33:01.989Z,12.11
2022-09-17T15:38:24.091Z,12.10
2022-09-17T15:43:35.393Z,12.10
2022-09-17T15:48:42.374Z,12.08
2022-09-17T15:53:55.837Z,12.04
2022-09-17T15:59:05.927Z,12.02
2022-09-17T16:04:24.695Z,12.00
2022-09-17T16:09:48.008Z,11.98
2022-09-17T16:14:56.697Z,11.95
2022-09-17T16:20:10.522Z,11.91
2022-09-17T16:25:18.457Z,11.89
2022-09-17T16:30:27.050Z,11.88
2022-09-17T16:44:31.504Z,11.78
2022-09-17T16:49:38.778Z,11.74
2022-09-17T16:54:46.374Z,11.72
2022-09-17T16:59:53.378Z,11.69
2022-09-17T17:04:59.140Z,11.64
2022-09-17T17:10:09.206Z,11.60
2022-09-17T17:18:58.006Z,11.55
2022-09-17T17:24:07.148Z,11.47
2022-09-17T17:29:17.327Z,11.43
2022-09-17T17:34:30.057Z,11.41
2022-09-17T17:39:37.138Z,11.39
2022-09-17T17:44:42.804Z,11.35
2022-09-17T17:49:51.354Z,11.34
2022-09-17T17:55:00.295Z,11.31
2022-09-17T18:00:12.780Z,11.28
2022-09-17T18:05:20.317Z,11.27
2022-09-17T18:10:31.336Z,11.28
2022-09-17T18:15:39.905Z,11.25
2022-09-17T18:20:47.581Z,11.23
2022-09-17T18:25:59.812Z,11.23
2022-09-17T18:31:16.344Z,11.22
2022-09-17T18:36:23.688Z,11.21
2022-09-17T18:41:33.147Z,11.19
2022-09-17T18:46:43.957Z,11.17
2022-09-17T18:51:54.113Z,11.14
2022-09-17T18:57:04.471Z,11.13
2022-09-17T19:02:15.358Z,11.13
2022-09-17T19:07:25.354Z,11.11
2022-09-17T19:12:36.758Z,11.08
2022-09-17T19:17:46.630Z,11.06
2022-09-17T19:22:54.456Z,11.03
2022-09-17T19:28:01.997Z,11.00
2022-09-17T19:33:09.141Z,10.96
2022-09-17T19:38:19.341Z,10.95
2022-09-17T19:43:26.968Z,10.93
2022-09-17T19:48:36.029Z,10.91
2022-09-17T19:53:43.739Z,10.89
2022-09-17T19:58:51.588Z,10.91
2022-09-17T20:04:03.662Z,10.91
2022-09-17T20:09:16.922Z,10.89
2022-09-17T20:28:51.680Z,10.89
2022-09-17T20:34:02.204Z,10.86
2022-09-17T20:39:15.443Z,10.86
2022-09-17T20:44:30.768Z,10.86
2022-09-17T20:49:37.946Z,10.84
2022-09-17T20:54:48.115Z,10.81
2022-09-17T20:59:57.927Z,10.79
2022-09-17T21:05:11.538Z,10.80
2022-09-17T21:10:21.343Z,10.79
2022-09-17T21:15:29.630Z,10.77
2022-09-17T21:20:40.716Z,10.76
2022-09-17T21:25:52.433Z,10.74
2022-09-17T21:31:07.572Z,10.70
2022-09-17T21:36:16.285Z,10.68
2022-09-17T21:41:28.676Z,10.64
2022-09-17T21:46:44.114Z,10.60
2022-09-17T21:51:51.751Z,10.59
2022-09-17T21:57:00.797Z,10.60
2022-09-17T22:02:11.626Z,10.58
2022-09-17T22:07:18.774Z,10.57
2022-09-17T22:12:28.703Z,10.54
2022-09-17T22:17:34.007Z,10.51
2022-09-17T22:22:43.865Z,10.48
2022-09-17T22:28:16.894Z,10.46
2022-09-17T22:33:26.969Z,10.45
2022-09-17T22:38:35.616Z,10.41
2022-09-17T22:43:43.171Z,10.38
2022-09-17T22:48:50.887Z,10.37
2022-09-17T22:54:05.967Z,10.32
2022-09-17T22:59:13.163Z,10.30
2022-09-17T23:04:21.285Z,10.29
2022-09-17T23:09:30.880Z,10.26
2022-09-17T23:14:37.992Z,10.26
2022-09-17T23:19:44.937Z,10.25
2022-09-17T23:24:52.161Z,10.22
2022-09-17T23:29:59.393Z,10.20
2022-09-17T23:35:07.827Z,10.15
2022-09-17T23:40:17.462Z,10.08
2022-09-17T23:45:25.653Z,10.02
2022-09-17T23:50:32.660Z,9.95
2022-09-17T23:55:52.028Z,9.86
